sensor_id;sensor_type;location;lat;lon;timestamp;pressure;altitude;pressure_sealevel;temperature;humidity
32875;BME280;40468;42.128;24.750;2023-03-26T00:01:23;98973.50;;;13.59;73.31
32875;BME280;40468;42.128;24.750;2023-03-26T00:02:54;98979.63;;;13.47;73.48
32875;BME280;40468;42.128;24.750;2023-03-26T00:04:27;98981.31;;;13.35;73.56
32875;BME280;40468;42.128;24.750;2023-03-26T00:06:06;98989.84;;;13.24;73.42
32875;BME280;40468;42.128;24.750;2023-03-26T00:07:39;98984.50;;;13.13;73.81
32875;BME280;40468;42.128;24.750;2023-03-26T00:09:11;98981.28;;;13.09;73.81
32875;BME280;40468;42.128;24.750;2023-03-26T00:10:44;98980.66;;;13.06;73.47
32875;BME280;40468;42.128;24.750;2023-03-26T00:12:16;98982.97;;;12.97;73.50
32875;BME280;40468;42.128;24.750;2023-03-26T00:13:48;98986.94;;;12.90;73.37
32875;BME280;40468;42.128;24.750;2023-03-26T00:15:19;98973.84;;;12.78;73.53
32875;BME280;40468;42.128;24.750;2023-03-26T00:16:51;98983.47;;;12.77;73.30
32875;BME280;40468;42.128;24.750;2023-03-26T00:18:23;98980.22;;;12.73;73.20
32875;BME280;40468;42.128;24.750;2023-03-26T00:19:59;98983.16;;;12.69;73.37
32875;BME280;40468;42.128;24.750;2023-03-26T00:21:33;98980.22;;;12.61;73.66
32875;BME280;40468;42.128;24.750;2023-03-26T00:23:05;98979.28;;;12.62;73.71
32875;BME280;40468;42.128;24.750;2023-03-26T00:24:38;98964.22;;;12.52;73.96
32875;BME280;40468;42.128;24.750;2023-03-26T00:26:10;98980.94;;;12.63;74.04
32875;BME280;40468;42.128;24.750;2023-03-26T00:27:42;98975.81;;;12.61;74.17
32875;BME280;40468;42.128;24.750;2023-03-26T00:29:14;98975.00;;;12.61;74.58
32875;BME280;40468;42.128;24.750;2023-03-26T00:30:49;98974.03;;;12.62;74.69
32875;BME280;40468;42.128;24.750;2023-03-26T00:32:21;98974.03;;;12.62;75.02
32875;BME280;40468;42.128;24.750;2023-03-26T00:33:57;98962.66;;;12.63;75.29
32875;BME280;40468;42.128;24.750;2023-03-26T00:35:34;98961.72;;;12.64;75.43
32875;BME280;40468;42.128;24.750;2023-03-26T00:37:08;98954.72;;;12.64;75.75
32875;BME280;40468;42.128;24.750;2023-03-26T00:38:56;98958.91;;;12.67;75.43
32875;BME280;40468;42.128;24.750;2023-03-26T00:40:28;98955.13;;;12.71;75.70
32875;BME280;40468;42.128;24.750;2023-03-26T00:42:01;98949.91;;;12.71;75.72
32875;BME280;40468;42.128;24.750;2023-03-26T00:43:36;98958.50;;;12.73;75.78
32875;BME280;40468;42.128;24.750;2023-03-26T00:45:07;98945.44;;;12.73;75.86
32875;BME280;40468;42.128;24.750;2023-03-26T00:46:39;98949.50;;;12.77;75.90
32875;BME280;40468;42.128;24.750;2023-03-26T00:48:12;98955.16;;;12.84;75.65
32875;BME280;40468;42.128;24.750;2023-03-26T00:49:43;98949.72;;;12.87;75.95
32875;BME280;40468;42.128;24.750;2023-03-26T00:51:17;98943.44;;;12.89;75.91
32875;BME280;40468;42.128;24.750;2023-03-26T00:52:50;98945.00;;;12.92;75.71
32875;BME280;40468;42.128;24.750;2023-03-26T00:54:25;98941.47;;;12.93;76.08
32875;BME280;40468;42.128;24.750;2023-03-26T00:55:58;98950.47;;;13.02;75.96
32875;BME280;40468;42.128;24.750;2023-03-26T00:57:30;98952.00;;;13.04;75.67
32875;BME280;40468;42.128;24.750;2023-03-26T00:59:02;98957.88;;;13.08;75.61
32875;BME280;40468;42.128;24.750;2023-03-26T01:00:35;98957.75;;;13.09;75.58
32875;BME280;40468;42.128;24.750;2023-03-26T01:02:07;98959.31;;;13.12;75.83
32875;BME280;40468;42.128;24.750;2023-03-26T01:03:43;98966.88;;;13.16;75.52
32875;BME280;40468;42.128;24.750;2023-03-26T01:07:10;98953.69;;;13.18;75.04
32875;BME280;40468;42.128;24.750;2023-03-26T01:08:45;98967.91;;;13.27;75.35
32875;BME280;40468;42.128;24.750;2023-03-26T01:10:17;98955.47;;;13.30;75.25
32875;BME280;40468;42.128;24.750;2023-03-26T01:11:52;98951.81;;;13.33;74.97
32875;BME280;40468;42.128;24.750;2023-03-26T01:13:24;98960.38;;;13.35;74.81
32875;BME280;40468;42.128;24.750;2023-03-26T01:14:57;98967.88;;;13.39;74.85
32875;BME280;40468;42.128;24.750;2023-03-26T01:16:34;98976.47;;;13.41;74.63
32875;BME280;40468;42.128;24.750;2023-03-26T01:18:07;98988.50;;;13.44;74.62
32875;BME280;40468;42.128;24.750;2023-03-26T01:19:47;98990.06;;;13.47;74.46
32875;BME280;40468;42.128;24.750;2023-03-26T01:21:24;98993.41;;;13.49;74.26
32875;BME280;40468;42.128;24.750;2023-03-26T01:23:01;98947.13;;;13.25;74.23
32875;BME280;40468;42.128;24.750;2023-03-26T01:24:36;98987.13;;;13.51;74.30
32875;BME280;40468;42.128;24.750;2023-03-26T01:26:19;98989.44;;;13.56;73.95
32875;BME280;40468;42.128;24.750;2023-03-26T01:27:55;98993.41;;;13.61;73.87
32875;BME280;40468;42.128;24.750;2023-03-26T01:29:31;98987.94;;;13.64;73.61
32875;BME280;40468;42.128;24.750;2023-03-26T01:31:09;98991.28;;;13.67;73.41
32875;BME280;40468;42.128;24.750;2023-03-26T01:32:55;98993.78;;;13.68;72.85
32875;BME280;40468;42.128;24.750;2023-03-26T01:34:35;98998.06;;;13.69;73.08
32875;BME280;40468;42.128;24.750;2023-03-26T01:36:15;98992.75;;;13.71;72.86
32875;BME280;40468;42.128;24.750;2023-03-26T01:37:57;98992.63;;;13.72;72.54
32875;BME280;40468;42.128;24.750;2023-03-26T01:39:36;98994.41;;;13.72;72.17
32875;BME280;40468;42.128;24.750;2023-03-26T01:41:17;99005.69;;;13.72;72.37
32875;BME280;40468;42.128;24.750;2023-03-26T01:42:57;99009.06;;;13.74;72.08
32875;BME280;40468;42.128;24.750;2023-03-26T01:44:34;99009.88;;;13.75;71.76
32875;BME280;40468;42.128;24.750;2023-03-26T01:46:10;99008.22;;;13.74;71.30
32875;BME280;40468;42.128;24.750;2023-03-26T01:47:44;99012.50;;;13.75;70.93
32875;BME280;40468;42.128;24.750;2023-03-26T01:49:17;99016.91;;;13.74;70.55
32875;BME280;40468;42.128;24.750;2023-03-26T01:50:50;99016.81;;;13.76;70.07
32875;BME280;40468;42.128;24.750;2023-03-26T01:52:25;99018.38;;;13.78;69.70
32875;BME280;40468;42.128;24.750;2023-03-26T01:53:58;99012.91;;;13.81;69.35
32875;BME280;40468;42.128;24.750;2023-03-26T01:55:40;99013.63;;;13.83;69.44
32875;BME280;40468;42.128;24.750;2023-03-26T01:57:26;99017.81;;;13.86;69.24
32875;BME280;40468;42.128;24.750;2023-03-26T01:59:18;99013.41;;;13.86;68.74
32875;BME280;40468;42.128;24.750;2023-03-26T02:01:02;98991.16;;;13.68;68.55
32875;BME280;40468;42.128;24.750;2023-03-26T02:03:04;99018.84;;;13.83;68.08
32875;BME280;40468;42.128;24.750;2023-03-26T02:04:51;99013.84;;;13.80;67.58
32875;BME280;40468;42.128;24.750;2023-03-26T02:06:29;99012.91;;;13.81;67.24
32875;BME280;40468;42.128;24.750;2023-03-26T02:08:10;99010.19;;;13.83;66.61
32875;BME280;40468;42.128;24.750;2023-03-26T02:09:53;99019.59;;;13.85;66.12
32875;BME280;40468;42.128;24.750;2023-03-26T02:11:28;99017.81;;;13.86;65.54
32875;BME280;40468;42.128;24.750;2023-03-26T02:13:00;99012.34;;;13.89;65.51
32875;BME280;40468;42.128;24.750;2023-03-26T02:14:32;99013.94;;;13.92;64.70
32875;BME280;40468;42.128;24.750;2023-03-26T02:16:07;99014.66;;;13.94;64.62
32875;BME280;40468;42.128;24.750;2023-03-26T02:17:41;99011.09;;;13.95;64.31
32875;BME280;40468;42.128;24.750;2023-03-26T02:19:13;99020.38;;;13.99;64.30
32875;BME280;40468;42.128;24.750;2023-03-26T02:20:51;99014.22;;;14.00;63.72
32875;BME280;40468;42.128;24.750;2023-03-26T02:22:23;99015.16;;;13.99;63.60
32875;BME280;40468;42.128;24.750;2023-03-26T02:23:59;99006.03;;;14.04;63.59
32875;BME280;40468;42.128;24.750;2023-03-26T02:25:33;99010.09;;;14.08;63.21
32875;BME280;40468;42.128;24.750;2023-03-26T02:27:10;99006.44;;;14.11;63.01
32875;BME280;40468;42.128;24.750;2023-03-26T02:28:43;99011.44;;;14.14;62.52
32875;BME280;40468;42.128;24.750;2023-03-26T02:30:18;99007.03;;;14.15;61.94
32875;BME280;40468;42.128;24.750;2023-03-26T02:31:51;99006.00;;;14.17;61.39
32875;BME280;40468;42.128;24.750;2023-03-26T02:33:23;99011.94;;;14.19;61.11
32875;BME280;40468;42.128;24.750;2023-03-26T02:34:55;98991.56;;;14.11;60.86
32875;BME280;40468;42.128;24.750;2023-03-26T02:36:27;99008.84;;;14.25;60.54
32875;BME280;40468;42.128;24.750;2023-03-26T02:37:59;99022.69;;;14.27;60.32
32875;BME280;40468;42.128;24.750;2023-03-26T02:39:32;99018.28;;;14.28;59.59
32875;BME280;40468;42.128;24.750;2023-03-26T02:41:04;99019.09;;;14.28;59.57
32875;BME280;40468;42.128;24.750;2023-03-26T02:42:38;99017.22;;;14.30;59.31
32875;BME280;40468;42.128;24.750;2023-03-26T02:44:10;99017.22;;;14.30;58.71
32875;BME280;40468;42.128;24.750;2023-03-26T02:45:42;99020.56;;;14.32;58.43
32875;BME280;40468;42.128;24.750;2023-03-26T02:47:14;99017.00;;;14.33;57.71
32875;BME280;40468;42.128;24.750;2023-03-26T02:48:49;99028.22;;;14.36;57.27
32875;BME280;40468;42.128;24.750;2023-03-26T02:50:21;99023.72;;;14.38;56.88
32875;BME280;40468;42.128;24.750;2023-03-26T02:51:53;99008.84;;;14.25;56.94
32875;BME280;40468;42.128;24.750;2023-03-26T02:53:26;99041.59;;;14.44;56.57
32875;BME280;40468;42.128;24.750;2023-03-26T02:54:59;99032.88;;;14.43;56.35
32875;BME280;40468;42.128;24.750;2023-03-26T02:56:30;99036.34;;;14.44;55.61
32875;BME280;40468;42.128;24.750;2023-03-26T02:58:03;99035.25;;;14.46;55.66
32875;BME280;40468;42.128;24.750;2023-03-26T02:59:35;99035.41;;;14.45;55.56
32875;BME280;40468;42.128;24.750;2023-03-26T03:01:07;99039.56;;;14.47;54.86
32875;BME280;40468;42.128;24.750;2023-03-26T03:02:39;99039.56;;;14.47;54.71
32875;BME280;40468;42.128;24.750;2023-03-26T03:04:13;99050.16;;;14.46;54.38
32875;BME280;40468;42.128;24.750;2023-03-26T03:05:47;99046.84;;;14.44;54.41
32875;BME280;40468;42.128;24.750;2023-03-26T03:07:19;99048.50;;;14.45;54.14
32875;BME280;40468;42.128;24.750;2023-03-26T03:08:53;99049.44;;;14.44;53.95
32875;BME280;40468;42.128;24.750;2023-03-26T03:10:27;99050.28;;;14.44;54.12
32875;BME280;40468;42.128;24.750;2023-03-26T03:12:02;99057.31;;;14.44;53.92
32875;BME280;40468;42.128;24.750;2023-03-26T03:13:36;99049.44;;;14.44;53.72
32875;BME280;40468;42.128;24.750;2023-03-26T03:15:08;99052.16;;;14.42;53.56
32875;BME280;40468;42.128;24.750;2023-03-26T03:16:41;99048.94;;;14.39;53.48
32875;BME280;40468;42.128;24.750;2023-03-26T03:18:13;98994.72;;;14.04;53.34
32875;BME280;40468;42.128;24.750;2023-03-26T03:19:44;99053.22;;;14.40;53.07
32875;BME280;40468;42.128;24.750;2023-03-26T03:21:16;99054.19;;;14.39;52.86
32875;BME280;40468;42.128;24.750;2023-03-26T03:22:48;99060.38;;;14.38;53.02
32875;BME280;40468;42.128;24.750;2023-03-26T03:24:20;99048.56;;;14.32;52.94
32875;BME280;40468;42.128;24.750;2023-03-26T03:25:53;99064.38;;;14.30;52.53
32875;BME280;40468;42.128;24.750;2023-03-26T03:27:26;99058.06;;;14.33;52.69
32875;BME280;40468;42.128;24.750;2023-03-26T03:29:00;99060.91;;;14.30;52.56
32875;BME280;40468;42.128;24.750;2023-03-26T03:30:31;99072.34;;;14.29;52.17
32875;BME280;40468;42.128;24.750;2023-03-26T03:32:04;99073.50;;;14.25;52.12
32875;BME280;40468;42.128;24.750;2023-03-26T03:33:36;99070.88;;;14.25;52.26
32875;BME280;40468;42.128;24.750;2023-03-26T03:35:07;99071.94;;;14.22;52.23
32875;BME280;40468;42.128;24.750;2023-03-26T03:36:40;99079.78;;;14.22;52.18
32875;BME280;40468;42.128;24.750;2023-03-26T03:38:11;99079.91;;;14.21;52.19
32875;BME280;40468;42.128;24.750;2023-03-26T03:39:44;99082.53;;;14.21;52.30
32875;BME280;40468;42.128;24.750;2023-03-26T03:41:16;99078.34;;;14.18;52.18
32875;BME280;40468;42.128;24.750;2023-03-26T03:42:49;99076.03;;;14.14;52.31
32875;BME280;40468;42.128;24.750;2023-03-26T03:44:22;99082.38;;;14.11;52.38
32875;BME280;40468;42.128;24.750;2023-03-26T03:45:54;99087.69;;;14.09;52.25
32875;BME280;40468;42.128;24.750;2023-03-26T03:47:25;99088.75;;;14.07;52.38
32875;BME280;40468;42.128;24.750;2023-03-26T03:48:57;99096.94;;;14.02;52.26
32875;BME280;40468;42.128;24.750;2023-03-26T03:50:29;99098.81;;;14.00;52.11
32875;BME280;40468;42.128;24.750;2023-03-26T03:52:02;99086.03;;;13.96;52.21
32875;BME280;40468;42.128;24.750;2023-03-26T03:53:34;99107.84;;;13.96;52.34
32875;BME280;40468;42.128;24.750;2023-03-26T03:55:10;99105.31;;;13.95;52.25
32875;BME280;40468;42.128;24.750;2023-03-26T03:56:43;99101.34;;;13.89;52.42
32875;BME280;40468;42.128;24.750;2023-03-26T03:58:16;99109.53;;;13.84;52.58
32875;BME280;40468;42.128;24.750;2023-03-26T03:59:53;99101.78;;;13.83;52.59
32875;BME280;40468;42.128;24.750;2023-03-26T04:01:28;99100.34;;;13.79;52.42
32875;BME280;40468;42.128;24.750;2023-03-26T04:03:00;99115.91;;;13.80;52.53
32875;BME280;40468;42.128;24.750;2023-03-26T04:04:36;99105.13;;;13.72;52.34
32875;BME280;40468;42.128;24.750;2023-03-26T04:06:08;99113.94;;;13.71;52.35
32875;BME280;40468;42.128;24.750;2023-03-26T04:07:40;99107.47;;;13.64;52.58
32875;BME280;40468;42.128;24.750;2023-03-26T04:09:13;99093.03;;;13.58;52.90
32875;BME280;40468;42.128;24.750;2023-03-26T04:10:45;99073.44;;;13.38;52.81
32875;BME280;40468;42.128;24.750;2023-03-26T04:12:16;99100.13;;;13.56;52.72
32875;BME280;40468;42.128;24.750;2023-03-26T04:13:48;99113.94;;;13.58;52.88
32875;BME280;40468;42.128;24.750;2023-03-26T04:15:22;99115.72;;;13.58;52.89
32875;BME280;40468;42.128;24.750;2023-03-26T04:16:54;99111.53;;;13.55;52.79
32875;BME280;40468;42.128;24.750;2023-03-26T04:18:26;99122.94;;;13.54;52.78
32875;BME280;40468;42.128;24.750;2023-03-26T04:19:59;99109.97;;;13.53;52.92
32875;BME280;40468;42.128;24.750;2023-03-26T04:21:44;99112.88;;;13.48;53.01
32875;BME280;40468;42.128;24.750;2023-03-26T04:23:16;99118.94;;;13.49;53.01
32875;BME280;40468;42.128;24.750;2023-03-26T04:24:48;99113.09;;;13.45;52.73
32875;BME280;40468;42.128;24.750;2023-03-26T04:26:23;99124.28;;;13.47;53.11
32875;BME280;40468;42.128;24.750;2023-03-26T04:27:55;99122.50;;;13.48;52.99
32875;BME280;40468;42.128;24.750;2023-03-26T04:29:35;99126.91;;;13.47;52.90
32875;BME280;40468;42.128;24.750;2023-03-26T04:31:15;99137.47;;;13.46;52.86
32875;BME280;40468;42.128;24.750;2023-03-26T04:32:48;99141.03;;;13.45;52.87
32875;BME280;40468;42.128;24.750;2023-03-26T04:34:22;99076.41;;;13.07;53.20
32875;BME280;40468;42.128;24.750;2023-03-26T04:35:54;99148.25;;;13.41;52.98
32875;BME280;40468;42.128;24.750;2023-03-26T04:37:32;99144.91;;;13.39;53.28
32875;BME280;40468;42.128;24.750;2023-03-26T04:39:11;99144.28;;;13.35;53.09
32875;BME280;40468;42.128;24.750;2023-03-26T04:40:43;99150.97;;;13.39;53.12
32875;BME280;40468;42.128;24.750;2023-03-26T04:42:16;99135.16;;;13.28;53.08
32875;BME280;40468;42.128;24.750;2023-03-26T04:43:49;99143.53;;;13.33;53.52
32875;BME280;40468;42.128;24.750;2023-03-26T04:45:21;99158.91;;;13.38;53.17
32875;BME280;40468;42.128;24.750;2023-03-26T04:46:55;99159.75;;;13.38;53.16
32875;BME280;40468;42.128;24.750;2023-03-26T04:48:27;99162.50;;;13.37;53.41
32875;BME280;40468;42.128;24.750;2023-03-26T04:49:59;99166.13;;;13.34;53.24
32875;BME280;40468;42.128;24.750;2023-03-26T04:51:35;99163.53;;;13.34;53.30
32875;BME280;40468;42.128;24.750;2023-03-26T04:53:10;99162.66;;;13.34;53.43
32875;BME280;40468;42.128;24.750;2023-03-26T04:54:43;99173.13;;;13.34;53.23
32875;BME280;40468;42.128;24.750;2023-03-26T04:56:24;99148.78;;;13.19;53.59
32875;BME280;40468;42.128;24.750;2023-03-26T04:58:00;99176.91;;;13.30;53.59
32875;BME280;40468;42.128;24.750;2023-03-26T04:59:34;99175.09;;;13.30;53.45
32875;BME280;40468;42.128;24.750;2023-03-26T05:01:08;99178.69;;;13.29;53.47
32875;BME280;40468;42.128;24.750;2023-03-26T05:02:42;99104.09;;;12.84;53.27
32875;BME280;40468;42.128;24.750;2023-03-26T05:04:15;99178.47;;;13.32;53.57
32875;BME280;40468;42.128;24.750;2023-03-26T05:05:47;99182.75;;;13.33;53.19
32875;BME280;40468;42.128;24.750;2023-03-26T05:07:20;99190.59;;;13.33;53.51
32875;BME280;40468;42.128;24.750;2023-03-26T05:08:53;99202.00;;;13.32;53.15
32875;BME280;40468;42.128;24.750;2023-03-26T05:10:25;99195.94;;;13.32;53.23
32875;BME280;40468;42.128;24.750;2023-03-26T05:11:57;99200.34;;;13.31;53.03
32875;BME280;40468;42.128;24.750;2023-03-26T05:13:28;99205.66;;;13.30;53.02
32875;BME280;40468;42.128;24.750;2023-03-26T05:15:00;99191.19;;;13.24;53.38
32875;BME280;40468;42.128;24.750;2023-03-26T05:16:33;99206.50;;;13.30;53.06
32875;BME280;40468;42.128;24.750;2023-03-26T05:18:06;99207.25;;;13.32;53.10
32875;BME280;40468;42.128;24.750;2023-03-26T05:19:38;99204.50;;;13.34;53.10
32875;BME280;40468;42.128;24.750;2023-03-26T05:21:10;99206.28;;;13.33;53.49
32875;BME280;40468;42.128;24.750;2023-03-26T05:22:42;99206.19;;;13.35;53.18
32875;BME280;40468;42.128;24.750;2023-03-26T05:24:14;99201.59;;;13.38;53.07
32875;BME280;40468;42.128;24.750;2023-03-26T05:25:47;99207.66;;;13.39;53.26
32875;BME280;40468;42.128;24.750;2023-03-26T05:27:19;99207.78;;;13.37;53.26
32875;BME280;40468;42.128;24.750;2023-03-26T05:28:51;99207.66;;;13.39;53.29
32875;BME280;40468;42.128;24.750;2023-03-26T05:30:22;99218.03;;;13.40;53.54
32875;BME280;40468;42.128;24.750;2023-03-26T05:31:55;99219.91;;;13.38;53.69
32875;BME280;40468;42.128;24.750;2023-03-26T05:33:28;99212.25;;;13.35;53.87
32875;BME280;40468;42.128;24.750;2023-03-26T05:35:00;99213.84;;;13.38;53.91
32875;BME280;40468;42.128;24.750;2023-03-26T05:36:33;99217.28;;;13.38;53.98
32875;BME280;40468;42.128;24.750;2023-03-26T05:38:05;99221.69;;;13.38;53.90
32875;BME280;40468;42.128;24.750;2023-03-26T05:39:37;99223.47;;;13.37;54.13
32875;BME280;40468;42.128;24.750;2023-03-26T05:41:09;99222.53;;;13.38;53.81
32875;BME280;40468;42.128;24.750;2023-03-26T05:42:41;99171.88;;;13.00;53.96
32875;BME280;40468;42.128;24.750;2023-03-26T05:44:13;99214.97;;;13.34;53.85
32875;BME280;40468;42.128;24.750;2023-03-26T05:45:46;99226.59;;;13.42;54.12
32875;BME280;40468;42.128;24.750;2023-03-26T05:47:18;99228.38;;;13.42;54.09
32875;BME280;40468;42.128;24.750;2023-03-26T05:48:51;99228.19;;;13.45;54.40
32875;BME280;40468;42.128;24.750;2023-03-26T05:50:23;99234.03;;;13.49;54.26
32875;BME280;40468;42.128;24.750;2023-03-26T05:51:55;99232.59;;;13.57;54.40
32875;BME280;40468;42.128;24.750;2023-03-26T05:53:27;99229.91;;;13.72;54.01
32875;BME280;40468;42.128;24.750;2023-03-26T05:55:00;99239.56;;;13.97;53.62
32875;BME280;40468;42.128;24.750;2023-03-26T05:56:31;99248.78;;;14.15;53.10
32875;BME280;40468;42.128;24.750;2023-03-26T05:58:04;99243.31;;;14.31;52.75
32875;BME280;40468;42.128;24.750;2023-03-26T05:59:35;99255.22;;;14.48;52.65
32875;BME280;40468;42.128;24.750;2023-03-26T06:01:09;99251.78;;;14.60;52.02
32875;BME280;40468;42.128;24.750;2023-03-26T06:02:46;99258.50;;;14.64;52.02
32875;BME280;40468;42.128;24.750;2023-03-26T06:04:19;99260.34;;;14.75;51.78
32875;BME280;40468;42.128;24.750;2023-03-26T06:05:50;99271.97;;;14.84;51.94
32875;BME280;40468;42.128;24.750;2023-03-26T06:07:22;99270.06;;;14.86;51.54
32875;BME280;40468;42.128;24.750;2023-03-26T06:08:56;99275.09;;;14.89;51.41
32875;BME280;40468;42.128;24.750;2023-03-26T06:10:28;99284.09;;;14.97;51.60
32875;BME280;40468;42.128;24.750;2023-03-26T06:12:00;99278.06;;;15.08;51.33
32875;BME280;40468;42.128;24.750;2023-03-26T06:13:31;99271.31;;;15.17;51.21
32875;BME280;40468;42.128;24.750;2023-03-26T06:15:04;99273.63;;;15.21;51.40
32875;BME280;40468;42.128;24.750;2023-03-26T06:16:36;99289.63;;;15.30;51.10
32875;BME280;40468;42.128;24.750;2023-03-26T06:18:08;99285.38;;;15.40;50.82
32875;BME280;40468;42.128;24.750;2023-03-26T06:19:41;99276.22;;;15.45;50.82
32875;BME280;40468;42.128;24.750;2023-03-26T06:21:13;99284.88;;;15.59;50.46
32875;BME280;40468;42.128;24.750;2023-03-26T06:22:45;99284.66;;;15.62;50.45
32875;BME280;40468;42.128;24.750;2023-03-26T06:24:17;99286.84;;;15.68;50.25
32875;BME280;40468;42.128;24.750;2023-03-26T06:25:49;99282.81;;;15.75;50.08
32875;BME280;40468;42.128;24.750;2023-03-26T06:27:21;99280.69;;;15.80;49.97
32875;BME280;40468;42.128;24.750;2023-03-26T06:28:53;99278.66;;;15.84;50.02
32875;BME280;40468;42.128;24.750;2023-03-26T06:30:25;99279.25;;;15.87;49.97
32875;BME280;40468;42.128;24.750;2023-03-26T06:31:57;99220.47;;;15.66;49.84
32875;BME280;40468;42.128;24.750;2023-03-26T06:33:29;99280.13;;;15.99;49.40
32875;BME280;40468;42.128;24.750;2023-03-26T06:35:02;99275.00;;;15.98;49.17
32875;BME280;40468;42.128;24.750;2023-03-26T06:36:33;99271.41;;;15.99;49.06
32875;BME280;40468;42.128;24.750;2023-03-26T06:38:06;99263.28;;;16.02;48.72
32875;BME280;40468;42.128;24.750;2023-03-26T06:39:38;99264.75;;;16.17;48.98
32875;BME280;40468;42.128;24.750;2023-03-26T06:41:10;99247.69;;;16.34;48.76
32875;BME280;40468;42.128;24.750;2023-03-26T06:42:42;99251.13;;;16.68;47.71
32875;BME280;40468;42.128;24.750;2023-03-26T06:44:14;99262.69;;;16.99;46.38
32875;BME280;40468;42.128;24.750;2023-03-26T06:45:49;99251.13;;;17.34;45.68
32875;BME280;40468;42.128;24.750;2023-03-26T06:47:21;99252.25;;;17.73;44.58
32875;BME280;40468;42.128;24.750;2023-03-26T06:48:53;99262.94;;;18.14;43.55
32875;BME280;40468;42.128;24.750;2023-03-26T06:50:26;99255.81;;;18.35;42.35
32875;BME280;40468;42.128;24.750;2023-03-26T06:51:58;99252.00;;;18.59;41.60
32875;BME280;40468;42.128;24.750;2023-03-26T06:53:32;99260.59;;;18.92;40.37
32875;BME280;40468;42.128;24.750;2023-03-26T06:55:05;99254.66;;;19.19;39.42
32875;BME280;40468;42.128;24.750;2023-03-26T06:56:39;99253.97;;;19.46;39.55
32875;BME280;40468;42.128;24.750;2023-03-26T06:58:12;99254.72;;;19.67;39.11
32875;BME280;40468;42.128;24.750;2023-03-26T06:59:44;99264.00;;;19.91;39.02
32875;BME280;40468;42.128;24.750;2023-03-26T07:01:16;99264.50;;;20.04;38.16
32875;BME280;40468;42.128;24.750;2023-03-26T07:02:48;99267.94;;;20.24;38.44
32875;BME280;40468;42.128;24.750;2023-03-26T07:04:21;99272.50;;;20.32;37.57
32875;BME280;40468;42.128;24.750;2023-03-26T07:05:54;99266.66;;;20.28;37.44
32875;BME280;40468;42.128;24.750;2023-03-26T07:07:27;99274.47;;;20.20;38.02
32875;BME280;40468;42.128;24.750;2023-03-26T07:09:00;99267.13;;;20.23;37.93
32875;BME280;40468;42.128;24.750;2023-03-26T07:10:32;99278.91;;;20.39;37.67
32875;BME280;40468;42.128;24.750;2023-03-26T07:12:04;99279.84;;;20.48;37.43
32875;BME280;40468;42.128;24.750;2023-03-26T07:13:36;99271.06;;;20.47;37.19
32875;BME280;40468;42.128;24.750;2023-03-26T07:15:10;99283.03;;;20.51;36.83
32875;BME280;40468;42.128;24.750;2023-03-26T07:16:42;99278.69;;;20.60;37.18
32875;BME280;40468;42.128;24.750;2023-03-26T07:18:14;99298.25;;;20.77;36.84
32875;BME280;40468;42.128;24.750;2023-03-26T07:19:46;99289.56;;;20.84;36.08
32875;BME280;40468;42.128;24.750;2023-03-26T07:21:20;99291.56;;;20.82;35.80
32875;BME280;40468;42.128;24.750;2023-03-26T07:22:53;99289.03;;;20.81;35.46
32875;BME280;40468;42.128;24.750;2023-03-26T07:24:25;99282.41;;;20.67;35.15
32875;BME280;40468;42.128;24.750;2023-03-26T07:25:59;99286.75;;;20.58;35.15
32875;BME280;40468;42.128;24.750;2023-03-26T07:27:39;99295.97;;;20.54;35.16
32875;BME280;40468;42.128;24.750;2023-03-26T07:29:19;99288.06;;;20.54;35.14
32875;BME280;40468;42.128;24.750;2023-03-26T07:30:59;99289.31;;;20.40;34.83
32875;BME280;40468;42.128;24.750;2023-03-26T07:32:39;99290.84;;;20.43;34.72
32875;BME280;40468;42.128;24.750;2023-03-26T07:34:25;99280.13;;;20.35;34.72
32875;BME280;40468;42.128;24.750;2023-03-26T07:36:11;99279.31;;;20.44;34.53
32875;BME280;40468;42.128;24.750;2023-03-26T07:38:01;99266.63;;;20.38;34.81
32875;BME280;40468;42.128;24.750;2023-03-26T07:39:45;99278.47;;;20.53;34.81
32875;BME280;40468;42.128;24.750;2023-03-26T07:41:26;99271.28;;;20.63;34.58
32875;BME280;40468;42.128;24.750;2023-03-26T07:43:04;99276.28;;;20.66;33.85
32875;BME280;40468;42.128;24.750;2023-03-26T07:44:47;99253.88;;;20.71;33.88
32875;BME280;40468;42.128;24.750;2023-03-26T07:46:27;99262.88;;;20.78;33.83
32875;BME280;40468;42.128;24.750;2023-03-26T07:48:01;99266.50;;;20.77;33.43
32875;BME280;40468;42.128;24.750;2023-03-26T07:49:34;99249.13;;;20.64;32.97
32875;BME280;40468;42.128;24.750;2023-03-26T07:51:08;99269.63;;;20.62;33.34
32875;BME280;40468;42.128;24.750;2023-03-26T07:52:41;99249.41;;;20.71;33.41
32875;BME280;40468;42.128;24.750;2023-03-26T07:54:14;99249.22;;;20.82;33.30
32875;BME280;40468;42.128;24.750;2023-03-26T07:55:51;99258.03;;;20.91;32.84
32875;BME280;40468;42.128;24.750;2023-03-26T07:57:32;99253.47;;;20.65;33.22
32875;BME280;40468;42.128;24.750;2023-03-26T07:59:19;99202.28;;;20.19;33.13
32875;BME280;40468;42.128;24.750;2023-03-26T08:00:57;99247.28;;;20.47;33.53
32875;BME280;40468;42.128;24.750;2023-03-26T08:02:56;99237.78;;;20.54;33.48
32875;BME280;40468;42.128;24.750;2023-03-26T08:04:49;99255.13;;;20.66;33.86
32875;BME280;40468;42.128;24.750;2023-03-26T08:06:33;99237.09;;;20.80;33.07
32875;BME280;40468;42.128;24.750;2023-03-26T08:08:10;99236.50;;;20.86;32.44
32875;BME280;40468;42.128;24.750;2023-03-26T08:09:57;99231.41;;;20.75;32.13
32875;BME280;40468;42.128;24.750;2023-03-26T08:11:39;99237.69;;;20.74;31.82
32875;BME280;40468;42.128;24.750;2023-03-26T08:13:20;99214.31;;;20.69;31.71
32875;BME280;40468;42.128;24.750;2023-03-26T08:14:59;99214.31;;;20.69;31.77
32875;BME280;40468;42.128;24.750;2023-03-26T08:16:38;99227.47;;;20.79;31.50